createdAt,value
2019-02-04T00:02:24.138Z,74.08
2019-02-04T00:04:53.881Z,74.04
2019-02-04T00:07:24.602Z,73.92
2019-02-04T00:09:55.854Z,74.35
2019-02-04T00:12:26.568Z,73.89
2019-02-04T00:14:56.013Z,74.12
2019-02-04T00:17:25.432Z,74.22
2019-02-04T00:19:55.412Z,74.20
2019-02-04T00:22:24.961Z,73.89
2019-02-04T00:24:56.183Z,74.22
2019-02-04T00:27:25.998Z,74.08
2019-02-04T00:29:55.566Z,74.06
2019-02-04T00:32:24.968Z,73.65
2019-02-04T00:34:56.775Z,73.82
2019-02-04T00:37:26.251Z,73.99
2019-02-04T00:39:55.831Z,73.97
2019-02-04T00:42:25.343Z,74.04
2019-02-04T00:44:55.874Z,73.90
2019-02-04T00:47:26.767Z,73.91
2019-02-04T00:49:57.741Z,73.72
2019-02-04T00:52:28.458Z,74.15
2019-02-04T00:54:59.012Z,74.10
2019-02-04T00:57:28.798Z,74.18
2019-02-04T00:59:58.534Z,74.07
2019-02-04T01:02:29.387Z,74.15
2019-02-04T01:04:58.990Z,73.69
2019-02-04T01:07:28.563Z,74.20
2019-02-04T01:09:58.088Z,74.37
2019-02-04T01:12:27.697Z,74.14
2019-02-04T01:14:57.442Z,74.64
2019-02-04T01:17:26.888Z,74.55
2019-02-04T01:19:56.577Z,74.44
2019-02-04T01:22:26.294Z,74.48
2019-02-04T01:24:55.749Z,74.53
2019-02-04T01:27:25.387Z,74.61
2019-02-04T01:29:56.540Z,74.44
2019-02-04T01:32:26.007Z,74.41
2019-02-04T01:34:56.598Z,74.23
2019-02-04T01:37:28.266Z,74.17
2019-02-04T01:39:57.662Z,74.54
2019-02-04T01:42:29.091Z,74.63
2019-02-04T01:44:58.509Z,74.66
2019-02-04T01:47:30.743Z,74.48
2019-02-04T01:50:00.348Z,74.67
2019-02-04T01:52:29.768Z,74.76
2019-02-04T01:54:59.483Z,74.83
2019-02-04T01:57:29.199Z,74.49
2019-02-04T01:59:59.729Z,74.58
2019-02-04T02:02:29.132Z,74.49
2019-02-04T02:04:58.738Z,74.75
2019-02-04T02:07:28.571Z,74.68
2019-02-04T02:09:58.071Z,74.98
2019-02-04T02:12:29.218Z,74.87
2019-02-04T02:14:58.691Z,74.86
2019-02-04T02:17:29.149Z,74.87
2019-02-04T02:19:58.867Z,74.89
2019-02-04T02:22:28.318Z,75.07
2019-02-04T02:24:57.716Z,75.19
2019-02-04T02:27:28.415Z,74.99
2019-02-04T02:30:00.421Z,74.97
2019-02-04T02:32:31.724Z,74.91
2019-02-04T02:35:01.727Z,74.97
2019-02-04T02:37:31.125Z,75.03
2019-02-04T02:40:03.396Z,75.35
2019-02-04T02:42:34.311Z,75.54
2019-02-04T02:45:04.350Z,75.55
2019-02-04T02:47:38.296Z,75.68
2019-02-04T02:50:07.360Z,75.37
2019-02-04T02:52:36.761Z,75.48
2019-02-04T02:55:07.495Z,75.22
2019-02-04T02:57:37.220Z,75.09
2019-02-04T03:00:09.943Z,75.16
2019-02-04T03:02:39.384Z,75.04
2019-02-04T03:05:10.824Z,75.23
2019-02-04T03:07:40.290Z,74.76
2019-02-04T03:10:12.639Z,74.85
2019-02-04T03:12:42.196Z,74.82
2019-02-04T03:15:12.334Z,75.05
2019-02-04T03:17:51.360Z,75.21
2019-02-04T03:20:13.526Z,75.35
2019-02-04T03:22:42.949Z,75.66
2019-02-04T03:25:12.643Z,75.72
2019-02-04T03:27:42.737Z,76.03
2019-02-04T03:30:21.063Z,75.68
2019-02-04T03:32:52.033Z,75.58
2019-02-04T03:35:23.323Z,75.66
2019-02-04T03:37:54.649Z,75.80
2019-02-04T03:40:26.730Z,75.56
2019-02-04T03:42:56.673Z,75.96
2019-02-04T03:45:26.227Z,75.82
2019-02-04T03:48:04.473Z,75.87
2019-02-04T03:50:27.542Z,75.96
2019-02-04T03:52:56.976Z,75.76
2019-02-04T03:55:26.608Z,75.66
2019-02-04T03:57:56.266Z,75.92
2019-02-04T04:00:28.119Z,76.22
2019-02-04T04:02:57.665Z,75.83
2019-02-04T04:05:28.789Z,75.87
2019-02-04T04:08:00.010Z,75.78
2019-02-04T04:10:30.912Z,76.16
2019-02-04T04:13:01.501Z,76.05
2019-02-04T04:15:30.891Z,75.95
2019-02-04T04:18:00.565Z,75.96
2019-02-04T04:20:30.422Z,75.95
2019-02-04T04:22:59.904Z,75.75
2019-02-04T04:25:32.003Z,75.73
2019-02-04T04:28:01.636Z,75.47
2019-02-04T04:30:31.077Z,75.56
2019-02-04T04:33:00.479Z,75.49
2019-02-04T04:35:30.035Z,75.32
2019-02-04T04:38:00.918Z,75.19
2019-02-04T04:40:30.321Z,75.08
2019-02-04T04:43:01.045Z,75.02
2019-02-04T04:45:34.364Z,75.11
2019-02-04T04:48:04.865Z,74.67
2019-02-04T04:50:34.310Z,74.30
2019-02-04T04:53:03.792Z,73.71
2019-02-04T04:55:34.231Z,73.96
2019-02-04T04:58:03.908Z,74.34
2019-02-04T05:00:33.618Z,74.25
2019-02-04T05:03:04.170Z,74.16
2019-02-04T05:05:34.796Z,73.87
2019-02-04T05:08:05.347Z,74.01
2019-02-04T05:10:34.820Z,74.11
2019-02-04T05:13:05.053Z,73.97
2019-02-04T05:15:34.743Z,74.08
2019-02-04T05:18:04.143Z,73.89
2019-02-04T05:20:33.796Z,73.86
2019-02-04T05:23:03.247Z,73.99
2019-02-04T05:25:34.472Z,74.04
2019-02-04T05:28:03.982Z,73.93
2019-02-04T05:30:33.408Z,73.68
2019-02-04T05:33:02.827Z,73.46
2019-02-04T05:35:33.922Z,73.51
2019-02-04T05:38:03.364Z,73.55
2019-02-04T05:40:33.074Z,73.45
2019-02-04T05:43:02.610Z,73.56
2019-02-04T05:45:33.003Z,74.00
2019-02-04T05:48:02.426Z,73.78
2019-02-04T05:50:32.314Z,73.96
2019-02-04T05:53:01.730Z,73.72
2019-02-04T05:55:31.190Z,73.91
2019-02-04T05:58:00.879Z,73.81
2019-02-04T06:00:35.504Z,73.60
2019-02-04T06:03:07.289Z,73.60
2019-02-04T06:05:38.914Z,73.46
2019-02-04T06:08:08.367Z,74.01
2019-02-04T06:10:38.174Z,73.98
2019-02-04T06:13:08.017Z,73.81
2019-02-04T06:15:37.644Z,74.12
2019-02-04T06:18:07.133Z,73.98
2019-02-04T06:20:37.295Z,74.05
2019-02-04T06:23:09.340Z,74.00
2019-02-04T06:25:39.014Z,73.68
2019-02-04T06:28:09.964Z,73.57
2019-02-04T06:30:39.394Z,73.49
2019-02-04T06:33:09.077Z,73.71
2019-02-04T06:35:38.928Z,73.65
2019-02-04T06:38:09.441Z,73.49
2019-02-04T06:40:38.886Z,72.92
2019-02-04T06:43:09.451Z,73.16
2019-02-04T06:45:38.855Z,73.24
2019-02-04T06:48:08.682Z,73.05
2019-02-04T06:50:38.524Z,73.65
2019-02-04T06:53:08.051Z,73.28
2019-02-04T06:55:41.326Z,72.94
2019-02-04T06:58:11.041Z,73.03
2019-02-04T07:00:40.433Z,72.86
2019-02-04T07:03:09.936Z,72.75
2019-02-04T07:05:44.007Z,72.48
2019-02-04T07:08:12.078Z,72.36
2019-02-04T07:10:43.061Z,71.59
2019-02-04T07:13:13.822Z,71.42
2019-02-04T07:15:45.065Z,71.52
2019-02-04T07:18:14.910Z,71.32
2019-02-04T07:20:45.366Z,71.15
2019-02-04T07:23:14.966Z,70.68
2019-02-04T07:25:46.748Z,70.25
2019-02-04T07:28:16.718Z,70.91
2019-02-04T07:30:46.167Z,70.73
2019-02-04T07:33:16.863Z,70.48
2019-02-04T07:35:46.667Z,70.83
2019-02-04T07:38:16.115Z,70.57
2019-02-04T07:40:45.586Z,70.42
2019-02-04T07:43:15.599Z,70.26
2019-02-04T07:45:46.054Z,70.11
2019-02-04T07:48:16.617Z,69.95
2019-02-04T07:50:46.506Z,70.06
2019-02-04T07:53:17.728Z,70.00
2019-02-04T07:55:48.282Z,70.11
2019-02-04T07:58:18.362Z,69.80
2019-02-04T08:00:48.226Z,70.01
2019-02-04T08:03:17.688Z,69.24
2019-02-04T08:05:47.187Z,68.80
2019-02-04T08:08:18.429Z,68.15
2019-02-04T08:10:48.097Z,67.88
2019-02-04T08:13:17.645Z,68.26
2019-02-04T08:15:47.082Z,68.67
2019-02-04T08:18:16.492Z,69.13
2019-02-04T08:20:46.221Z,69.45
2019-02-04T08:23:15.712Z,69.53
2019-02-04T08:25:45.176Z,69.40
2019-02-04T08:28:15.133Z,69.46
2019-02-04T08:30:46.306Z,69.33
2019-02-04T08:33:15.729Z,69.38
2019-02-04T08:35:45.181Z,69.92
2019-02-04T08:38:15.060Z,70.06
2019-02-04T08:40:46.164Z,70.16
2019-02-04T08:43:15.874Z,70.58
2019-02-04T08:45:45.368Z,70.00
2019-02-04T08:48:17.331Z,69.94
2019-02-04T08:50:48.716Z,69.92
2019-02-04T08:53:19.450Z,69.86
2019-02-04T08:55:48.953Z,69.29
2019-02-04T08:58:18.699Z,69.00
2019-02-04T09:00:48.668Z,68.75
2019-02-04T09:03:19.987Z,68.67
2019-02-04T09:05:51.130Z,68.32
2019-02-04T09:08:22.077Z,68.36
2019-02-04T09:10:51.601Z,68.25
2019-02-04T09:13:21.262Z,67.86
2019-02-04T09:15:50.765Z,68.01
2019-02-04T09:18:25.049Z,67.56
2019-02-04T09:20:56.232Z,67.26
2019-02-04T09:23:27.501Z,66.84
2019-02-04T09:25:56.989Z,66.67
2019-02-04T09:28:29.958Z,66.36
2019-02-04T09:30:59.119Z,66.39
2019-02-04T09:33:30.135Z,66.32
2019-02-04T09:35:59.725Z,66.08
2019-02-04T09:38:29.234Z,65.74
2019-02-04T09:40:58.738Z,65.08
2019-02-04T09:43:28.352Z,65.20
2019-02-04T09:45:57.814Z,64.26
2019-02-04T09:48:29.011Z,63.89
2019-02-04T09:51:02.016Z,63.34
2019-02-04T09:53:32.544Z,63.07
2019-02-04T09:56:02.707Z,62.68
2019-02-04T09:58:32.475Z,62.48
2019-02-04T10:01:04.257Z,62.10
2019-02-04T10:03:33.606Z,62.15
2019-02-04T10:06:03.291Z,61.90
2019-02-04T10:08:36.306Z,61.25
2019-02-04T10:11:05.849Z,60.77
2019-02-04T10:13:35.473Z,61.01
2019-02-04T10:16:05.302Z,61.35
2019-02-04T10:18:37.884Z,61.23
2019-02-04T10:21:08.831Z,61.24
2019-02-04T10:23:38.260Z,60.11
2019-02-04T10:26:07.680Z,59.31
2019-02-04T10:28:37.428Z,59.07
2019-02-04T10:31:07.125Z,58.73
2019-02-04T10:33:38.077Z,58.14
2019-02-04T10:36:08.195Z,58.01
2019-02-04T10:38:37.618Z,57.56
2019-02-04T10:41:07.320Z,56.92
2019-02-04T10:43:39.802Z,56.76
2019-02-04T10:46:09.497Z,55.88
2019-02-04T10:48:38.946Z,56.42
2019-02-04T10:51:09.664Z,55.64
2019-02-04T10:53:39.214Z,55.13
2019-02-04T10:56:09.271Z,54.67
2019-02-04T10:58:39.086Z,55.04
2019-02-04T11:01:09.337Z,55.15
2019-02-04T11:03:40.038Z,54.59
2019-02-04T11:06:09.808Z,54.17
2019-02-04T11:08:39.719Z,54.09
2019-02-04T11:11:09.409Z,53.48
2019-02-04T11:13:39.048Z,54.05
2019-02-04T11:16:08.741Z,53.68
2019-02-04T11:18:39.283Z,54.10
2019-02-04T11:21:08.936Z,54.33
2019-02-04T11:23:38.350Z,53.88
2019-02-04T11:26:08.107Z,54.10
2019-02-04T11:28:37.721Z,53.85
2019-02-04T11:31:10.344Z,54.42
2019-02-04T11:33:41.653Z,55.40
2019-02-04T11:36:11.552Z,55.82
2019-02-04T11:38:42.771Z,56.12
2019-02-04T11:41:12.224Z,55.77
2019-02-04T11:43:44.670Z,56.31
2019-02-04T11:46:14.129Z,56.67
2019-02-04T11:48:45.434Z,56.95
2019-02-04T11:51:15.700Z,56.94
2019-02-04T11:53:59.424Z,56.53
2019-02-04T11:56:32.958Z,56.53
2019-02-04T11:59:02.564Z,55.88
2019-02-04T12:01:36.484Z,55.83
2019-02-04T12:04:08.544Z,55.97
2019-02-04T12:06:40.009Z,55.48
2019-02-04T12:09:10.789Z,55.58
2019-02-04T12:11:42.138Z,55.65
2019-02-04T12:14:13.268Z,55.73
2019-02-04T12:16:44.428Z,55.67
2019-02-04T12:19:19.459Z,55.51
2019-02-04T12:21:51.112Z,55.28
2019-02-04T12:24:32.311Z,55.28
2019-02-04T12:27:03.252Z,54.74
2019-02-04T12:29:37.764Z,54.54
2019-02-04T12:32:09.792Z,54.71
2019-02-04T12:34:42.567Z,54.87
2019-02-04T12:37:12.860Z,54.10
2019-02-04T12:39:42.420Z,53.90
2019-02-04T12:42:15.835Z,53.81
2019-02-04T12:44:49.220Z,54.02
2019-02-04T12:47:21.527Z,53.48
2019-02-04T12:49:55.332Z,53.87
2019-02-04T12:52:25.470Z,53.82
2019-02-04T12:54:55.337Z,54.26
2019-02-04T12:57:25.180Z,54.62
2019-02-04T13:00:00.052Z,54.17
2019-02-04T13:02:41.020Z,54.03
2019-02-04T13:05:22.421Z,54.47
2019-02-04T13:08:05.599Z,53.99
2019-02-04T13:10:40.377Z,53.96
2019-02-04T13:13:14.231Z,53.70
2019-02-04T13:15:44.744Z,53.89
2019-02-04T13:18:16.166Z,54.29
2019-02-04T13:20:46.590Z,54.46
2019-02-04T13:23:17.923Z,53.90
2019-02-04T13:25:57.398Z,53.37
2019-02-04T13:28:26.158Z,53.47
2019-02-04T13:30:56.925Z,53.66
2019-02-04T13:33:28.488Z,53.38
2019-02-04T13:35:58.591Z,53.32
2019-02-04T13:38:28.050Z,53.18
2019-02-04T13:41:08.131Z,53.35
2019-02-04T13:43:37.187Z,53.30
2019-02-04T13:46:20.284Z,52.78
2019-02-04T13:48:50.345Z,53.55
2019-02-04T13:51:19.887Z,53.41
2019-02-04T13:53:51.521Z,53.34
2019-02-04T13:56:21.345Z,53.02
2019-02-04T13:58:52.269Z,53.32
2019-02-04T14:01:25.383Z,53.23
2019-02-04T14:03:57.323Z,53.03
2019-02-04T14:06:27.978Z,52.91
2019-02-04T14:08:59.671Z,53.67
2019-02-04T14:11:31.621Z,53.25
2019-02-04T14:14:04.191Z,53.10
2019-02-04T14:16:33.896Z,53.13
2019-02-04T14:19:10.686Z,53.13
2019-02-04T14:21:41.657Z,52.98
2019-02-04T14:24:14.139Z,53.33
2019-02-04T14:26:49.063Z,52.98
2019-02-04T14:29:22.311Z,52.88
2019-02-04T14:31:51.993Z,53.06
2019-02-04T14:34:24.453Z,53.10
2019-02-04T14:36:55.977Z,52.86
2019-02-04T14:39:26.297Z,52.41
2019-02-04T14:41:55.748Z,52.39
2019-02-04T14:44:34.261Z,52.37
2019-02-04T14:47:13.084Z,52.33
2019-02-04T14:50:16.549Z,52.21
2019-02-04T14:53:16.055Z,52.32
2019-02-04T14:56:09.744Z,52.03
2019-02-04T14:59:23.569Z,51.93
2019-02-04T15:02:37.310Z,52.28
2019-02-04T15:05:55.464Z,52.21
2019-02-04T15:09:14.718Z,52.22
2019-02-04T15:12:20.963Z,52.47
2019-02-04T15:15:30.356Z,52.01
2019-02-04T15:18:30.181Z,51.49
2019-02-04T15:21:36.835Z,52.11
2019-02-04T15:24:30.674Z,51.70
2019-02-04T15:27:41.187Z,51.85
2019-02-04T15:30:51.578Z,51.80
2019-02-04T15:34:02.416Z,51.68
2019-02-04T15:37:16.565Z,51.71
2019-02-04T15:40:27.524Z,52.22
2019-02-04T15:43:20.920Z,51.92
2019-02-04T15:46:16.888Z,51.51
2019-02-04T15:49:35.544Z,51.60
2019-02-04T15:52:05.926Z,51.94
2019-02-04T15:54:37.343Z,52.18
2019-02-04T15:57:07.125Z,52.17
2019-02-04T15:59:37.007Z,52.08
2019-02-04T16:02:08.489Z,51.95
2019-02-04T16:04:38.150Z,51.82
2019-02-04T16:07:10.412Z,52.13
2019-02-04T16:09:40.979Z,52.36
2019-02-04T16:12:10.841Z,52.50
2019-02-04T16:14:41.468Z,52.29
2019-02-04T16:17:12.508Z,52.01
2019-02-04T16:19:42.317Z,52.24
2019-02-04T16:22:12.058Z,52.19
2019-02-04T16:24:42.673Z,52.12
2019-02-04T16:27:13.716Z,52.08
2019-02-04T16:29:43.288Z,52.37
2019-02-04T16:32:13.974Z,52.27
2019-02-04T16:34:44.889Z,52.62
2019-02-04T16:37:14.402Z,52.97
2019-02-04T16:39:45.362Z,53.13
2019-02-04T16:42:15.501Z,53.41
2019-02-04T16:44:44.917Z,53.33
2019-02-04T16:47:14.369Z,52.74
2019-02-04T16:49:44.094Z,52.98
2019-02-04T16:52:13.525Z,52.89
2019-02-04T16:54:43.324Z,52.65
2019-02-04T16:57:12.838Z,52.36
2019-02-04T16:59:42.266Z,52.51
2019-02-04T17:02:11.710Z,52.70
2019-02-04T17:04:41.215Z,52.55
2019-02-04T17:07:10.829Z,52.64
2019-02-04T17:09:40.509Z,52.30
2019-02-04T17:12:11.096Z,52.44
2019-02-04T17:14:41.852Z,52.13
2019-02-04T17:17:11.277Z,52.66
2019-02-04T17:19:41.011Z,52.57
2019-02-04T17:22:13.906Z,52.81
2019-02-04T17:24:43.461Z,52.63
2019-02-04T17:27:13.497Z,53.26
2019-02-04T17:29:46.891Z,52.93
2019-02-04T17:32:16.327Z,52.79
2019-02-04T17:34:45.832Z,52.94
2019-02-04T17:37:19.345Z,52.98
2019-02-04T17:39:48.713Z,53.19
2019-02-04T17:42:18.424Z,53.19
2019-02-04T17:44:47.879Z,53.27
2019-02-04T17:47:17.368Z,53.38
2019-02-04T17:49:47.046Z,54.18
2019-02-04T17:52:19.873Z,53.70
2019-02-04T17:54:49.502Z,53.51
2019-02-04T17:57:19.319Z,53.39
2019-02-04T17:59:49.263Z,53.22
2019-02-04T18:02:21.443Z,53.07
2019-02-04T18:04:51.309Z,52.92
2019-02-04T18:07:21.287Z,53.26
2019-02-04T18:09:51.939Z,52.95
2019-02-04T18:12:23.404Z,53.21
2019-02-04T18:14:55.547Z,53.42
2019-02-04T18:17:29.232Z,52.90
2019-02-04T18:19:58.989Z,53.30
2019-02-04T18:22:28.605Z,52.82
2019-02-04T18:24:59.374Z,52.74
2019-02-04T18:27:32.343Z,52.93
2019-02-04T18:30:02.222Z,52.45
2019-02-04T18:32:36.008Z,52.73
2019-02-04T18:35:06.751Z,52.42
2019-02-04T18:37:36.367Z,52.52
2019-02-04T18:40:07.779Z,52.52
2019-02-04T18:42:39.249Z,52.43
2019-02-04T18:45:15.847Z,52.58
2019-02-04T18:47:49.198Z,52.76
2019-02-04T18:50:19.987Z,53.21
2019-02-04T18:52:50.806Z,53.10
2019-02-04T18:55:22.972Z,53.51
2019-02-04T18:57:54.446Z,54.20
2019-02-04T19:00:25.855Z,54.67
2019-02-04T19:02:55.794Z,54.37
2019-02-04T19:05:27.011Z,54.74
2019-02-04T19:07:59.526Z,54.97
2019-02-04T19:10:30.550Z,55.36
2019-02-04T19:13:00.363Z,55.67
2019-02-04T19:15:30.969Z,56.17
2019-02-04T19:18:04.216Z,55.76
2019-02-04T19:20:34.800Z,55.53
2019-02-04T19:23:05.570Z,56.13
2019-02-04T19:25:35.042Z,56.07
2019-02-04T19:28:08.760Z,56.07
2019-02-04T19:30:46.799Z,55.94
2019-02-04T19:33:17.740Z,56.39
2019-02-04T19:35:49.178Z,55.54
2019-02-04T19:38:19.636Z,55.99
2019-02-04T19:40:50.164Z,55.89
2019-02-04T19:43:20.748Z,56.06
2019-02-04T19:45:51.128Z,56.83
2019-02-04T19:48:23.388Z,56.01
2019-02-04T19:50:53.346Z,56.40
2019-02-04T19:53:28.501Z,56.12
2019-02-04T19:56:02.110Z,56.21
2019-02-04T19:58:31.906Z,56.25
2019-02-04T20:01:01.358Z,56.33
2019-02-04T20:03:32.777Z,56.48
2019-02-04T20:06:02.354Z,56.29
2019-02-04T20:08:32.399Z,56.30
2019-02-04T20:11:06.472Z,56.23
2019-02-04T20:13:38.022Z,55.97
2019-02-04T20:16:09.156Z,55.93
2019-02-04T20:18:39.041Z,55.95
2019-02-04T20:21:08.684Z,55.75
2019-02-04T20:23:38.599Z,56.09
2019-02-04T20:26:09.970Z,55.89
2019-02-04T20:28:39.543Z,55.84
2019-02-04T20:31:10.948Z,56.14
2019-02-04T20:33:40.651Z,55.75
2019-02-04T20:36:12.677Z,56.60
2019-02-04T20:38:42.175Z,57.02
2019-02-04T20:41:11.838Z,56.49
2019-02-04T20:43:43.077Z,56.34
2019-02-04T20:46:12.577Z,56.63
2019-02-04T20:48:43.223Z,56.77
2019-02-04T20:51:12.708Z,56.78
2019-02-04T20:53:42.371Z,57.16
2019-02-04T20:56:12.293Z,57.64
2019-02-04T20:58:43.873Z,57.57
2019-02-04T21:01:15.162Z,57.40
2019-02-04T21:03:46.315Z,57.47
2019-02-04T21:06:15.735Z,57.63
2019-02-04T21:08:45.281Z,57.71
2019-02-04T21:11:14.934Z,57.99
2019-02-04T21:13:45.433Z,58.04
2019-02-04T21:16:18.477Z,57.94
2019-02-04T21:18:48.198Z,57.87
2019-02-04T21:21:18.766Z,57.64
2019-02-04T21:23:48.191Z,57.98
2019-02-04T21:26:19.060Z,57.90
2019-02-04T21:28:50.289Z,57.79
2019-02-04T21:31:20.027Z,57.71
2019-02-04T21:33:49.769Z,58.12
2019-02-04T21:36:19.195Z,58.15
2019-02-04T21:38:49.100Z,57.99
2019-02-04T21:41:18.725Z,58.31
2019-02-04T21:43:49.482Z,58.52
2019-02-04T21:46:20.564Z,58.28
2019-02-04T21:48:50.607Z,58.79
2019-02-04T21:51:20.261Z,59.42
2019-02-04T21:53:49.766Z,59.40
2019-02-04T21:56:22.435Z,59.88
2019-02-04T21:58:51.858Z,60.08
2019-02-04T22:01:21.564Z,60.22
2019-02-04T22:03:53.253Z,59.93
2019-02-04T22:06:22.754Z,60.39
2019-02-04T22:08:52.148Z,60.40
2019-02-04T22:11:21.898Z,59.97
2019-02-04T22:13:52.389Z,60.19
2019-02-04T22:16:22.867Z,60.20
2019-02-04T22:18:52.972Z,59.83
2019-02-04T22:21:23.405Z,60.22
2019-02-04T22:23:54.677Z,60.56
2019-02-04T22:26:25.484Z,60.80
2019-02-04T22:28:56.000Z,60.90
2019-02-04T22:31:27.290Z,60.76
2019-02-04T22:33:57.397Z,61.25
2019-02-04T22:36:29.704Z,61.92
2019-02-04T22:38:59.138Z,62.04
2019-02-04T22:41:30.360Z,61.99
2019-02-04T22:43:59.757Z,62.06
2019-02-04T22:46:29.389Z,62.26
2019-02-04T22:49:00.684Z,63.20
2019-02-04T22:51:31.156Z,63.15
2019-02-04T22:54:01.582Z,63.69
2019-02-04T22:56:33.611Z,63.89
2019-02-04T22:59:03.215Z,64.27
2019-02-04T23:01:55.552Z,64.49
2019-02-04T23:04:25.467Z,65.35
2019-02-04T23:06:56.822Z,65.11
2019-02-04T23:09:26.432Z,65.39
2019-02-04T23:11:56.915Z,65.39
2019-02-04T23:14:26.406Z,65.20
2019-02-04T23:16:58.414Z,65.48
2019-02-04T23:19:29.795Z,65.20
2019-02-04T23:21:59.301Z,65.81
2019-02-04T23:24:29.016Z,66.13
2019-02-04T23:26:58.456Z,66.56
2019-02-04T23:29:29.054Z,67.35
2019-02-04T23:31:58.907Z,68.25
2019-02-04T23:34:28.336Z,68.68
2019-02-04T23:36:59.244Z,68.82
2019-02-04T23:39:28.853Z,69.17
2019-02-04T23:41:58.500Z,69.68
2019-02-04T23:44:29.213Z,69.57
2019-02-04T23:46:58.926Z,70.26
2019-02-04T23:49:28.487Z,70.37
2019-02-04T23:51:57.969Z,70.50
2019-02-04T23:54:27.855Z,69.82
2019-02-04T23:56:57.264Z,69.85
2019-02-04T23:59:27.230Z,70.28
